sensor_id;sensor_type;location;lat;lon;timestamp;P1;durP1;ratioP1;P2;durP2;ratioP2
61638;SDS011;47544;52.484;4.658;2022-07-29T00:00:03;4.35;;;1.55;;
61638;SDS011;47544;52.484;4.658;2022-07-29T00:00:14;4.97;;;1.50;;
61638;SDS011;47544;52.484;4.658;2022-07-29T00:00:25;4.25;;;1.50;;
61638;SDS011;47544;52.484;4.658;2022-07-29T00:00:37;3.85;;;1.40;;
61638;SDS011;47544;52.484;4.658;2022-07-29T00:00:48;3.58;;;1.50;;
61638;SDS011;47544;52.484;4.658;2022-07-29T00:00:59;3.70;;;1.60;;
61638;SDS011;47544;52.484;4.658;2022-07-29T00:01:13;3.10;;;1.60;;
61638;SDS011;47544;52.484;4.658;2022-07-29T00:01:24;2.97;;;1.50;;
61638;SDS011;47544;52.484;4.658;2022-07-29T00:01:35;3.22;;;1.58;;
61638;SDS011;47544;52.484;4.658;2022-07-29T00:01:46;3.75;;;1.70;;
61638;SDS011;47544;52.484;4.658;2022-07-29T00:01:57;4.97;;;1.70;;
61638;SDS011;47544;52.484;4.658;2022-07-29T00:02:08;5.30;;;1.70;;
61638;SDS011;47544;52.484;4.658;2022-07-29T00:02:19;4.82;;;1.65;;
61638;SDS011;47544;52.484;4.658;2022-07-29T00:02:30;3.78;;;1.85;;
61638;SDS011;47544;52.484;4.658;2022-07-29T00:02:42;3.25;;;1.70;;
61638;SDS011;47544;52.484;4.658;2022-07-29T00:02:54;3.60;;;1.50;;
61638;SDS011;47544;52.484;4.658;2022-07-29T00:03:05;3.60;;;1.42;;
61638;SDS011;47544;52.484;4.658;2022-07-29T00:03:16;3.85;;;1.60;;
61638;SDS011;47544;52.484;4.658;2022-07-29T00:03:26;3.97;;;1.60;;
61638;SDS011;47544;52.484;4.658;2022-07-29T00:03:37;4.22;;;1.60;;
61638;SDS011;47544;52.484;4.658;2022-07-29T00:03:48;4.43;;;1.60;;
61638;SDS011;47544;52.484;4.658;2022-07-29T00:04:00;4.15;;;1.60;;
61638;SDS011;47544;52.484;4.658;2022-07-29T00:04:11;3.92;;;1.50;;
61638;SDS011;47544;52.484;4.658;2022-07-29T00:04:22;3.58;;;1.40;;
61638;SDS011;47544;52.484;4.658;2022-07-29T00:04:35;3.35;;;1.42;;
61638;SDS011;47544;52.484;4.658;2022-07-29T00:04:46;3.33;;;1.42;;
61638;SDS011;47544;52.484;4.658;2022-07-29T00:04:57;3.97;;;1.50;;
61638;SDS011;47544;52.484;4.658;2022-07-29T00:05:08;3.78;;;1.40;;
61638;SDS011;47544;52.484;4.658;2022-07-29T00:05:19;4.07;;;1.42;;
61638;SDS011;47544;52.484;4.658;2022-07-29T00:05:35;4.18;;;1.50;;
61638;SDS011;47544;52.484;4.658;2022-07-29T00:05:46;3.95;;;1.58;;
61638;SDS011;47544;52.484;4.658;2022-07-29T00:05:57;2.97;;;1.45;;
61638;SDS011;47544;52.484;4.658;2022-07-29T00:06:08;2.53;;;1.40;;
61638;SDS011;47544;52.484;4.658;2022-07-29T00:06:19;2.78;;;1.50;;
61638;SDS011;47544;52.484;4.658;2022-07-29T00:06:31;3.97;;;1.60;;
61638;SDS011;47544;52.484;4.658;2022-07-29T00:06:43;5.13;;;1.60;;
61638;SDS011;47544;52.484;4.658;2022-07-29T00:06:54;4.53;;;1.60;;
61638;SDS011;47544;52.484;4.658;2022-07-29T00:07:05;4.18;;;1.60;;
61638;SDS011;47544;52.484;4.658;2022-07-29T00:07:15;3.80;;;1.53;;
61638;SDS011;47544;52.484;4.658;2022-07-29T00:07:26;3.97;;;1.50;;
61638;SDS011;47544;52.484;4.658;2022-07-29T00:07:37;3.45;;;1.50;;
61638;SDS011;47544;52.484;4.658;2022-07-29T00:07:48;3.20;;;1.50;;
61638;SDS011;47544;52.484;4.658;2022-07-29T00:07:59;3.20;;;1.50;;
61638;SDS011;47544;52.484;4.658;2022-07-29T00:08:11;3.03;;;1.48;;
61638;SDS011;47544;52.484;4.658;2022-07-29T00:08:22;3.33;;;1.40;;
61638;SDS011;47544;52.484;4.658;2022-07-29T00:08:32;3.43;;;1.40;;
61638;SDS011;47544;52.484;4.658;2022-07-29T00:08:43;3.80;;;1.48;;
61638;SDS011;47544;52.484;4.658;2022-07-29T00:08:54;3.78;;;1.40;;
61638;SDS011;47544;52.484;4.658;2022-07-29T00:09:05;3.83;;;1.33;;
61638;SDS011;47544;52.484;4.658;2022-07-29T00:09:18;3.60;;;1.35;;
61638;SDS011;47544;52.484;4.658;2022-07-29T00:09:30;3.40;;;1.40;;
61638;SDS011;47544;52.484;4.658;2022-07-29T00:09:41;3.80;;;1.40;;
61638;SDS011;47544;52.484;4.658;2022-07-29T00:09:52;4.40;;;1.48;;
61638;SDS011;47544;52.484;4.658;2022-07-29T00:10:03;4.15;;;1.40;;
61638;SDS011;47544;52.484;4.658;2022-07-29T00:10:14;4.40;;;1.40;;
61638;SDS011;47544;52.484;4.658;2022-07-29T00:10:25;3.63;;;1.40;;
61638;SDS011;47544;52.484;4.658;2022-07-29T00:10:38;3.75;;;1.35;;
61638;SDS011;47544;52.484;4.658;2022-07-29T00:10:49;3.83;;;1.38;;
61638;SDS011;47544;52.484;4.658;2022-07-29T00:11:03;3.10;;;1.40;;
61638;SDS011;47544;52.484;4.658;2022-07-29T00:11:14;2.92;;;1.50;;
61638;SDS011;47544;52.484;4.658;2022-07-29T00:11:25;3.75;;;1.55;;
61638;SDS011;47544;52.484;4.658;2022-07-29T00:11:36;5.05;;;1.60;;
61638;SDS011;47544;52.484;4.658;2022-07-29T00:11:47;5.38;;;1.70;;
61638;SDS011;47544;52.484;4.658;2022-07-29T00:11:59;5.05;;;1.60;;
61638;SDS011;47544;52.484;4.658;2022-07-29T00:12:11;4.20;;;1.52;;
61638;SDS011;47544;52.484;4.658;2022-07-29T00:12:23;3.85;;;1.60;;
61638;SDS011;47544;52.484;4.658;2022-07-29T00:12:34;2.92;;;1.50;;
61638;SDS011;47544;52.484;4.658;2022-07-29T00:12:46;4.10;;;1.67;;
61638;SDS011;47544;52.484;4.658;2022-07-29T00:12:57;4.70;;;1.70;;
61638;SDS011;47544;52.484;4.658;2022-07-29T00:13:08;4.60;;;1.70;;
61638;SDS011;47544;52.484;4.658;2022-07-29T00:13:18;3.15;;;1.50;;
61638;SDS011;47544;52.484;4.658;2022-07-29T00:13:30;3.10;;;1.50;;
61638;SDS011;47544;52.484;4.658;2022-07-29T00:13:41;3.42;;;1.50;;
61638;SDS011;47544;52.484;4.658;2022-07-29T00:13:52;3.95;;;1.42;;
61638;SDS011;47544;52.484;4.658;2022-07-29T00:14:03;4.25;;;1.40;;
61638;SDS011;47544;52.484;4.658;2022-07-29T00:14:14;4.72;;;1.52;;
61638;SDS011;47544;52.484;4.658;2022-07-29T00:14:25;4.93;;;1.65;;
61638;SDS011;47544;52.484;4.658;2022-07-29T00:14:36;5.18;;;1.70;;
61638;SDS011;47544;52.484;4.658;2022-07-29T00:14:47;5.22;;;1.50;;
61638;SDS011;47544;52.484;4.658;2022-07-29T00:14:58;3.90;;;1.40;;
61638;SDS011;47544;52.484;4.658;2022-07-29T00:15:12;3.03;;;1.48;;
61638;SDS011;47544;52.484;4.658;2022-07-29T00:15:23;3.08;;;1.55;;
61638;SDS011;47544;52.484;4.658;2022-07-29T00:15:34;3.50;;;1.60;;
61638;SDS011;47544;52.484;4.658;2022-07-29T00:15:45;3.70;;;1.50;;
61638;SDS011;47544;52.484;4.658;2022-07-29T00:15:56;5.00;;;1.50;;
61638;SDS011;47544;52.484;4.658;2022-07-29T00:16:06;6.65;;;1.60;;
61638;SDS011;47544;52.484;4.658;2022-07-29T00:16:18;6.20;;;1.60;;
61638;SDS011;47544;52.484;4.658;2022-07-29T00:16:30;4.07;;;1.52;;
61638;SDS011;47544;52.484;4.658;2022-07-29T00:16:40;4.80;;;1.60;;
61638;SDS011;47544;52.484;4.658;2022-07-29T00:16:51;4.72;;;1.55;;
61638;SDS011;47544;52.484;4.658;2022-07-29T00:17:02;4.28;;;1.50;;
61638;SDS011;47544;52.484;4.658;2022-07-29T00:17:13;3.40;;;1.40;;
61638;SDS011;47544;52.484;4.658;2022-07-29T00:17:24;3.80;;;1.40;;
61638;SDS011;47544;52.484;4.658;2022-07-29T00:17:43;3.53;;;1.40;;
61638;SDS011;47544;52.484;4.658;2022-07-29T00:17:55;3.20;;;1.52;;
61638;SDS011;47544;52.484;4.658;2022-07-29T00:18:06;3.60;;;1.60;;
61638;SDS011;47544;52.484;4.658;2022-07-29T00:18:17;3.97;;;1.55;;
61638;SDS011;47544;52.484;4.658;2022-07-29T00:18:28;4.38;;;1.60;;
61638;SDS011;47544;52.484;4.658;2022-07-29T00:18:38;4.57;;;1.63;;
61638;SDS011;47544;52.484;4.658;2022-07-29T00:18:50;4.38;;;1.70;;
61638;SDS011;47544;52.484;4.658;2022-07-29T00:19:00;4.37;;;1.60;;
61638;SDS011;47544;52.484;4.658;2022-07-29T00:19:12;3.75;;;1.60;;
61638;SDS011;47544;52.484;4.658;2022-07-29T00:19:23;3.53;;;1.50;;
61638;SDS011;47544;52.484;4.658;2022-07-29T00:19:34;3.72;;;1.60;;
61638;SDS011;47544;52.484;4.658;2022-07-29T00:19:45;4.15;;;1.67;;
61638;SDS011;47544;52.484;4.658;2022-07-29T00:19:56;3.97;;;1.73;;
61638;SDS011;47544;52.484;4.658;2022-07-29T00:20:08;4.38;;;1.70;;
61638;SDS011;47544;52.484;4.658;2022-07-29T00:20:19;4.50;;;1.67;;
61638;SDS011;47544;52.484;4.658;2022-07-29T00:20:31;4.97;;;1.60;;
61638;SDS011;47544;52.484;4.658;2022-07-29T00:20:42;4.35;;;1.63;;
61638;SDS011;47544;52.484;4.658;2022-07-29T00:20:53;3.80;;;1.55;;
61638;SDS011;47544;52.484;4.658;2022-07-29T00:21:04;3.55;;;1.50;;
61638;SDS011;47544;52.484;4.658;2022-07-29T00:21:14;4.87;;;1.50;;
61638;SDS011;47544;52.484;4.658;2022-07-29T00:21:26;4.07;;;1.50;;
61638;SDS011;47544;52.484;4.658;2022-07-29T00:21:36;4.10;;;1.58;;
61638;SDS011;47544;52.484;4.658;2022-07-29T00:21:47;2.90;;;1.50;;
61638;SDS011;47544;52.484;4.658;2022-07-29T00:22:01;3.17;;;1.60;;
61638;SDS011;47544;52.484;4.658;2022-07-29T00:22:12;3.40;;;1.58;;
61638;SDS011;47544;52.484;4.658;2022-07-29T00:22:23;3.72;;;1.60;;
61638;SDS011;47544;52.484;4.658;2022-07-29T00:22:36;4.68;;;1.60;;
61638;SDS011;47544;52.484;4.658;2022-07-29T00:22:47;4.05;;;1.50;;
61638;SDS011;47544;52.484;4.658;2022-07-29T00:22:58;3.67;;;1.35;;
61638;SDS011;47544;52.484;4.658;2022-07-29T00:23:09;2.97;;;1.40;;
61638;SDS011;47544;52.484;4.658;2022-07-29T00:23:20;3.72;;;1.40;;
61638;SDS011;47544;52.484;4.658;2022-07-29T00:23:30;3.95;;;1.60;;
61638;SDS011;47544;52.484;4.658;2022-07-29T00:23:42;4.57;;;1.65;;
61638;SDS011;47544;52.484;4.658;2022-07-29T00:23:55;4.63;;;1.75;;
61638;SDS011;47544;52.484;4.658;2022-07-29T00:24:06;4.50;;;1.70;;
61638;SDS011;47544;52.484;4.658;2022-07-29T00:24:19;4.93;;;1.70;;
61638;SDS011;47544;52.484;4.658;2022-07-29T00:24:30;5.60;;;1.65;;
61638;SDS011;47544;52.484;4.658;2022-07-29T00:24:40;5.38;;;1.60;;
61638;SDS011;47544;52.484;4.658;2022-07-29T00:24:51;4.77;;;1.50;;
61638;SDS011;47544;52.484;4.658;2022-07-29T00:25:06;4.68;;;1.58;;
61638;SDS011;47544;52.484;4.658;2022-07-29T00:25:17;3.67;;;1.50;;
61638;SDS011;47544;52.484;4.658;2022-07-29T00:25:28;3.83;;;1.48;;
61638;SDS011;47544;52.484;4.658;2022-07-29T00:25:39;3.70;;;1.50;;
61638;SDS011;47544;52.484;4.658;2022-07-29T00:25:50;3.03;;;1.50;;
61638;SDS011;47544;52.484;4.658;2022-07-29T00:26:01;3.60;;;1.60;;
61638;SDS011;47544;52.484;4.658;2022-07-29T00:26:12;4.88;;;1.70;;
61638;SDS011;47544;52.484;4.658;2022-07-29T00:26:22;5.38;;;1.70;;
61638;SDS011;47544;52.484;4.658;2022-07-29T00:26:33;4.90;;;1.60;;
61638;SDS011;47544;52.484;4.658;2022-07-29T00:26:45;3.92;;;1.70;;
61638;SDS011;47544;52.484;4.658;2022-07-29T00:26:56;4.35;;;1.70;;
61638;SDS011;47544;52.484;4.658;2022-07-29T00:27:10;4.35;;;1.65;;
61638;SDS011;47544;52.484;4.658;2022-07-29T00:27:20;3.55;;;1.58;;
61638;SDS011;47544;52.484;4.658;2022-07-29T00:27:32;3.10;;;1.50;;
61638;SDS011;47544;52.484;4.658;2022-07-29T00:27:43;3.28;;;1.50;;
61638;SDS011;47544;52.484;4.658;2022-07-29T00:27:56;4.00;;;1.70;;
61638;SDS011;47544;52.484;4.658;2022-07-29T00:28:07;3.88;;;1.77;;
61638;SDS011;47544;52.484;4.658;2022-07-29T00:28:23;4.43;;;1.70;;
61638;SDS011;47544;52.484;4.658;2022-07-29T00:28:34;4.63;;;1.73;;
61638;SDS011;47544;52.484;4.658;2022-07-29T00:28:45;4.28;;;1.60;;
61638;SDS011;47544;52.484;4.658;2022-07-29T00:28:56;4.05;;;1.70;;
61638;SDS011;47544;52.484;4.658;2022-07-29T00:29:06;3.97;;;1.52;;
61638;SDS011;47544;52.484;4.658;2022-07-29T00:29:18;3.92;;;1.63;;
61638;SDS011;47544;52.484;4.658;2022-07-29T00:29:31;3.42;;;1.58;;
61638;SDS011;47544;52.484;4.658;2022-07-29T00:29:43;3.88;;;1.67;;
61638;SDS011;47544;52.484;4.658;2022-07-29T00:29:54;4.90;;;1.73;;
61638;SDS011;47544;52.484;4.658;2022-07-29T00:30:07;5.40;;;1.73;;
61638;SDS011;47544;52.484;4.658;2022-07-29T00:30:21;4.85;;;1.70;;
61638;SDS011;47544;52.484;4.658;2022-07-29T00:30:32;4.47;;;1.70;;
61638;SDS011;47544;52.484;4.658;2022-07-29T00:30:43;4.22;;;1.70;;
61638;SDS011;47544;52.484;4.658;2022-07-29T00:30:53;4.40;;;1.65;;
61638;SDS011;47544;52.484;4.658;2022-07-29T00:31:05;4.60;;;1.80;;
61638;SDS011;47544;52.484;4.658;2022-07-29T00:31:16;5.10;;;1.80;;
61638;SDS011;47544;52.484;4.658;2022-07-29T00:31:27;4.63;;;1.88;;
61638;SDS011;47544;52.484;4.658;2022-07-29T00:31:38;4.05;;;1.83;;
61638;SDS011;47544;52.484;4.658;2022-07-29T00:31:49;3.65;;;1.90;;
61638;SDS011;47544;52.484;4.658;2022-07-29T00:32:00;3.80;;;1.80;;
61638;SDS011;47544;52.484;4.658;2022-07-29T00:32:11;3.92;;;1.60;;
61638;SDS011;47544;52.484;4.658;2022-07-29T00:32:22;3.95;;;1.50;;
61638;SDS011;47544;52.484;4.658;2022-07-29T00:32:34;3.88;;;1.50;;
61638;SDS011;47544;52.484;4.658;2022-07-29T00:32:44;3.42;;;1.60;;
61638;SDS011;47544;52.484;4.658;2022-07-29T00:32:55;4.05;;;1.67;;
61638;SDS011;47544;52.484;4.658;2022-07-29T00:33:09;5.00;;;1.70;;
61638;SDS011;47544;52.484;4.658;2022-07-29T00:33:20;5.15;;;1.80;;
61638;SDS011;47544;52.484;4.658;2022-07-29T00:33:32;5.18;;;1.70;;
61638;SDS011;47544;52.484;4.658;2022-07-29T00:33:43;4.97;;;1.80;;
61638;SDS011;47544;52.484;4.658;2022-07-29T00:33:56;4.10;;;1.60;;
61638;SDS011;47544;52.484;4.658;2022-07-29T00:34:08;3.65;;;1.60;;
61638;SDS011;47544;52.484;4.658;2022-07-29T00:34:39;4.07;;;1.60;;
61638;SDS011;47544;52.484;4.658;2022-07-29T00:35:08;5.10;;;1.65;;
61638;SDS011;47544;52.484;4.658;2022-07-29T00:35:38;3.75;;;1.80;;
61638;SDS011;47544;52.484;4.658;2022-07-29T00:35:54;3.95;;;1.65;;
61638;SDS011;47544;52.484;4.658;2022-07-29T00:36:05;4.13;;;1.70;;
61638;SDS011;47544;52.484;4.658;2022-07-29T00:36:16;4.47;;;1.70;;
61638;SDS011;47544;52.484;4.658;2022-07-29T00:36:27;4.55;;;1.60;;
61638;SDS011;47544;52.484;4.658;2022-07-29T00:36:38;4.10;;;1.70;;
61638;SDS011;47544;52.484;4.658;2022-07-29T00:36:49;3.55;;;1.70;;
61638;SDS011;47544;52.484;4.658;2022-07-29T00:37:00;3.05;;;1.65;;
61638;SDS011;47544;52.484;4.658;2022-07-29T00:37:11;2.97;;;1.65;;
61638;SDS011;47544;52.484;4.658;2022-07-29T00:37:22;5.28;;;1.70;;
61638;SDS011;47544;52.484;4.658;2022-07-29T00:37:33;6.15;;;1.80;;
61638;SDS011;47544;52.484;4.658;2022-07-29T00:37:44;6.20;;;1.98;;
61638;SDS011;47544;52.484;4.658;2022-07-29T00:37:55;3.87;;;1.97;;
61638;SDS011;47544;52.484;4.658;2022-07-29T00:38:06;3.25;;;1.83;;
61638;SDS011;47544;52.484;4.658;2022-07-29T00:38:19;4.22;;;1.90;;
61638;SDS011;47544;52.484;4.658;2022-07-29T00:38:30;4.57;;;1.90;;
61638;SDS011;47544;52.484;4.658;2022-07-29T00:38:41;4.30;;;2.00;;
61638;SDS011;47544;52.484;4.658;2022-07-29T00:38:55;3.92;;;1.80;;
61638;SDS011;47544;52.484;4.658;2022-07-29T00:39:06;3.58;;;1.65;;
61638;SDS011;47544;52.484;4.658;2022-07-29T00:39:19;4.05;;;1.70;;
61638;SDS011;47544;52.484;4.658;2022-07-29T00:39:33;3.70;;;1.80;;
61638;SDS011;47544;52.484;4.658;2022-07-29T00:39:46;3.78;;;1.77;;
61638;SDS011;47544;52.484;4.658;2022-07-29T00:39:56;4.70;;;1.70;;
61638;SDS011;47544;52.484;4.658;2022-07-29T00:40:08;5.13;;;1.90;;
61638;SDS011;47544;52.484;4.658;2022-07-29T00:40:19;5.00;;;1.92;;
61638;SDS011;47544;52.484;4.658;2022-07-29T00:40:30;3.55;;;1.90;;
61638;SDS011;47544;52.484;4.658;2022-07-29T00:40:41;3.33;;;1.70;;
61638;SDS011;47544;52.484;4.658;2022-07-29T00:40:51;4.30;;;1.60;;
61638;SDS011;47544;52.484;4.658;2022-07-29T00:41:03;4.72;;;1.60;;
61638;SDS011;47544;52.484;4.658;2022-07-29T00:41:14;4.60;;;1.70;;
61638;SDS011;47544;52.484;4.658;2022-07-29T00:41:25;5.18;;;1.80;;
61638;SDS011;47544;52.484;4.658;2022-07-29T00:41:36;5.53;;;1.90;;
61638;SDS011;47544;52.484;4.658;2022-07-29T00:41:47;5.60;;;1.80;;
61638;SDS011;47544;52.484;4.658;2022-07-29T00:42:00;4.85;;;1.70;;
61638;SDS011;47544;52.484;4.658;2022-07-29T00:42:12;3.90;;;1.65;;
61638;SDS011;47544;52.484;4.658;2022-07-29T00:42:23;3.92;;;1.70;;
61638;SDS011;47544;52.484;4.658;2022-07-29T00:42:41;4.10;;;1.70;;
61638;SDS011;47544;52.484;4.658;2022-07-29T00:42:52;3.85;;;1.75;;
61638;SDS011;47544;52.484;4.658;2022-07-29T00:43:03;4.18;;;1.70;;
61638;SDS011;47544;52.484;4.658;2022-07-29T00:43:14;4.63;;;1.65;;
61638;SDS011;47544;52.484;4.658;2022-07-29T00:43:26;5.30;;;1.77;;
61638;SDS011;47544;52.484;4.658;2022-07-29T00:43:37;5.13;;;1.70;;
61638;SDS011;47544;52.484;4.658;2022-07-29T00:43:48;4.47;;;1.80;;
61638;SDS011;47544;52.484;4.658;2022-07-29T00:43:59;3.78;;;1.60;;
61638;SDS011;47544;52.484;4.658;2022-07-29T00:44:10;3.00;;;1.70;;
61638;SDS011;47544;52.484;4.658;2022-07-29T00:44:22;3.10;;;1.70;;
61638;SDS011;47544;52.484;4.658;2022-07-29T00:44:35;4.00;;;1.77;;
61638;SDS011;47544;52.484;4.658;2022-07-29T00:44:46;4.38;;;1.80;;
61638;SDS011;47544;52.484;4.658;2022-07-29T00:44:57;4.70;;;1.80;;
61638;SDS011;47544;52.484;4.658;2022-07-29T00:45:09;5.45;;;1.65;;
61638;SDS011;47544;52.484;4.658;2022-07-29T00:45:20;5.20;;;1.60;;
61638;SDS011;47544;52.484;4.658;2022-07-29T00:45:32;3.88;;;1.65;;
61638;SDS011;47544;52.484;4.658;2022-07-29T00:45:43;4.65;;;1.70;;
61638;SDS011;47544;52.484;4.658;2022-07-29T00:45:56;5.03;;;1.70;;
61638;SDS011;47544;52.484;4.658;2022-07-29T00:46:07;5.23;;;1.70;;
61638;SDS011;47544;52.484;4.658;2022-07-29T00:46:19;5.55;;;1.80;;
61638;SDS011;47544;52.484;4.658;2022-07-29T00:46:30;5.10;;;1.75;;
61638;SDS011;47544;52.484;4.658;2022-07-29T00:46:41;4.10;;;1.70;;
61638;SDS011;47544;52.484;4.658;2022-07-29T00:46:53;4.10;;;1.60;;
61638;SDS011;47544;52.484;4.658;2022-07-29T00:47:04;4.15;;;1.60;;
61638;SDS011;47544;52.484;4.658;2022-07-29T00:47:15;5.13;;;1.55;;
61638;SDS011;47544;52.484;4.658;2022-07-29T00:47:26;5.38;;;1.60;;
61638;SDS011;47544;52.484;4.658;2022-07-29T00:47:36;5.03;;;1.70;;
61638;SDS011;47544;52.484;4.658;2022-07-29T00:47:47;3.50;;;1.67;;
61638;SDS011;47544;52.484;4.658;2022-07-29T00:47:58;2.55;;;1.50;;
61638;SDS011;47544;52.484;4.658;2022-07-29T00:48:10;3.03;;;1.50;;
61638;SDS011;47544;52.484;4.658;2022-07-29T00:48:21;3.95;;;1.58;;
61638;SDS011;47544;52.484;4.658;2022-07-29T00:48:32;4.90;;;1.80;;
61638;SDS011;47544;52.484;4.658;2022-07-29T00:48:43;6.00;;;1.88;;
61638;SDS011;47544;52.484;4.658;2022-07-29T00:48:54;5.22;;;1.80;;
61638;SDS011;47544;52.484;4.658;2022-07-29T00:49:04;5.15;;;1.90;;
61638;SDS011;47544;52.484;4.658;2022-07-29T00:49:17;3.50;;;1.70;;
61638;SDS011;47544;52.484;4.658;2022-07-29T00:49:28;4.50;;;1.70;;
61638;SDS011;47544;52.484;4.658;2022-07-29T00:49:40;4.57;;;1.58;;
61638;SDS011;47544;52.484;4.658;2022-07-29T00:49:52;4.75;;;1.70;;
61638;SDS011;47544;52.484;4.658;2022-07-29T00:50:03;4.45;;;1.63;;
61638;SDS011;47544;52.484;4.658;2022-07-29T00:50:14;4.38;;;1.70;;
61638;SDS011;47544;52.484;4.658;2022-07-29T00:50:25;4.55;;;1.67;;
61638;SDS011;47544;52.484;4.658;2022-07-29T00:50:36;4.53;;;1.70;;
61638;SDS011;47544;52.484;4.658;2022-07-29T00:50:48;4.38;;;1.58;;
61638;SDS011;47544;52.484;4.658;2022-07-29T00:51:01;4.30;;;1.50;;
61638;SDS011;47544;52.484;4.658;2022-07-29T00:51:12;3.33;;;1.67;;
61638;SDS011;47544;52.484;4.658;2022-07-29T00:51:24;4.07;;;1.90;;
61638;SDS011;47544;52.484;4.658;2022-07-29T00:51:36;3.88;;;1.80;;
61638;SDS011;47544;52.484;4.658;2022-07-29T00:51:47;3.97;;;1.70;;
61638;SDS011;47544;52.484;4.658;2022-07-29T00:52:01;3.70;;;1.67;;
61638;SDS011;47544;52.484;4.658;2022-07-29T00:52:12;3.80;;;1.70;;
61638;SDS011;47544;52.484;4.658;2022-07-29T00:52:26;4.45;;;1.70;;
61638;SDS011;47544;52.484;4.658;2022-07-29T00:52:39;4.90;;;1.70;;
61638;SDS011;47544;52.484;4.658;2022-07-29T00:52:50;4.22;;;1.60;;
61638;SDS011;47544;52.484;4.658;2022-07-29T00:53:02;4.07;;;1.60;;
61638;SDS011;47544;52.484;4.658;2022-07-29T00:53:13;5.05;;;1.75;;
61638;SDS011;47544;52.484;4.658;2022-07-29T00:53:24;4.78;;;1.90;;
61638;SDS011;47544;52.484;4.658;2022-07-29T00:53:39;3.78;;;1.70;;
61638;SDS011;47544;52.484;4.658;2022-07-29T00:53:50;3.28;;;1.60;;
61638;SDS011;47544;52.484;4.658;2022-07-29T00:54:04;3.85;;;1.77;;
61638;SDS011;47544;52.484;4.658;2022-07-29T00:54:15;5.40;;;1.83;;
61638;SDS011;47544;52.484;4.658;2022-07-29T00:54:27;6.05;;;1.80;;
61638;SDS011;47544;52.484;4.658;2022-07-29T00:54:39;4.78;;;1.70;;
61638;SDS011;47544;52.484;4.658;2022-07-29T00:54:50;4.57;;;1.65;;
61638;SDS011;47544;52.484;4.658;2022-07-29T00:55:02;4.25;;;1.60;;
61638;SDS011;47544;52.484;4.658;2022-07-29T00:55:14;4.03;;;1.70;;
61638;SDS011;47544;52.484;4.658;2022-07-29T00:55:25;4.32;;;1.80;;
61638;SDS011;47544;52.484;4.658;2022-07-29T00:55:37;3.97;;;1.90;;
61638;SDS011;47544;52.484;4.658;2022-07-29T00:55:48;3.58;;;1.70;;
61638;SDS011;47544;52.484;4.658;2022-07-29T00:55:59;3.92;;;1.80;;
61638;SDS011;47544;52.484;4.658;2022-07-29T00:56:12;5.47;;;1.70;;
61638;SDS011;47544;52.484;4.658;2022-07-29T00:56:23;5.50;;;1.70;;
61638;SDS011;47544;52.484;4.658;2022-07-29T00:56:35;5.25;;;1.70;;
61638;SDS011;47544;52.484;4.658;2022-07-29T00:56:46;4.18;;;1.60;;
61638;SDS011;47544;52.484;4.658;2022-07-29T00:56:57;4.10;;;1.60;;
61638;SDS011;47544;52.484;4.658;2022-07-29T00:57:08;4.40;;;1.75;;
61638;SDS011;47544;52.484;4.658;2022-07-29T00:57:20;4.05;;;1.80;;
61638;SDS011;47544;52.484;4.658;2022-07-29T00:57:31;4.30;;;1.90;;
61638;SDS011;47544;52.484;4.658;2022-07-29T00:57:43;4.18;;;1.77;;
61638;SDS011;47544;52.484;4.658;2022-07-29T00:57:55;4.38;;;1.73;;
61638;SDS011;47544;52.484;4.658;2022-07-29T00:58:07;3.83;;;1.70;;
61638;SDS011;47544;52.484;4.658;2022-07-29T00:58:21;4.40;;;1.60;;
61638;SDS011;47544;52.484;4.658;2022-07-29T00:58:35;3.83;;;1.50;;
61638;SDS011;47544;52.484;4.658;2022-07-29T00:58:47;2.92;;;1.52;;
61638;SDS011;47544;52.484;4.658;2022-07-29T00:58:59;3.38;;;1.70;;
61638;SDS011;47544;52.484;4.658;2022-07-29T00:59:10;4.18;;;1.83;;
61638;SDS011;47544;52.484;4.658;2022-07-29T00:59:21;4.15;;;1.80;;
61638;SDS011;47544;52.484;4.658;2022-07-29T00:59:32;4.03;;;1.65;;
61638;SDS011;47544;52.484;4.658;2022-07-29T00:59:43;4.00;;;1.60;;
61638;SDS011;47544;52.484;4.658;2022-07-29T00:59:54;3.83;;;1.58;;
61638;SDS011;47544;52.484;4.658;2022-07-29T01:00:06;4.07;;;1.70;;
61638;SDS011;47544;52.484;4.658;2022-07-29T01:00:18;4.18;;;1.70;;
61638;SDS011;47544;52.484;4.658;2022-07-29T01:00:30;3.92;;;1.55;;
61638;SDS011;47544;52.484;4.658;2022-07-29T01:00:41;3.72;;;1.50;;
61638;SDS011;47544;52.484;4.658;2022-07-29T01:00:52;4.18;;;1.70;;
61638;SDS011;47544;52.484;4.658;2022-07-29T01:01:06;5.60;;;1.90;;
61638;SDS011;47544;52.484;4.658;2022-07-29T01:01:17;5.40;;;1.98;;
61638;SDS011;47544;52.484;4.658;2022-07-29T01:01:28;5.32;;;1.80;;
61638;SDS011;47544;52.484;4.658;2022-07-29T01:01:39;4.53;;;1.67;;
61638;SDS011;47544;52.484;4.658;2022-07-29T01:01:50;3.90;;;1.60;;
61638;SDS011;47544;52.484;4.658;2022-07-29T01:02:02;3.92;;;1.70;;
61638;SDS011;47544;52.484;4.658;2022-07-29T01:02:12;3.83;;;1.80;;
61638;SDS011;47544;52.484;4.658;2022-07-29T01:02:23;3.78;;;1.55;;
61638;SDS011;47544;52.484;4.658;2022-07-29T01:02:34;3.92;;;1.50;;
61638;SDS011;47544;52.484;4.658;2022-07-29T01:02:46;3.93;;;1.50;;
61638;SDS011;47544;52.484;4.658;2022-07-29T01:02:59;3.42;;;1.40;;
61638;SDS011;47544;52.484;4.658;2022-07-29T01:03:10;3.83;;;1.45;;
61638;SDS011;47544;52.484;4.658;2022-07-29T01:03:21;4.10;;;1.60;;
61638;SDS011;47544;52.484;4.658;2022-07-29T01:03:32;5.18;;;1.73;;
61638;SDS011;47544;52.484;4.658;2022-07-29T01:03:43;4.53;;;1.70;;
61638;SDS011;47544;52.484;4.658;2022-07-29T01:03:54;4.38;;;1.70;;
61638;SDS011;47544;52.484;4.658;2022-07-29T01:04:05;3.40;;;1.50;;
61638;SDS011;47544;52.484;4.658;2022-07-29T01:04:16;3.47;;;1.60;;
61638;SDS011;47544;52.484;4.658;2022-07-29T01:04:31;3.83;;;1.52;;
61638;SDS011;47544;52.484;4.658;2022-07-29T01:04:42;4.82;;;1.58;;
61638;SDS011;47544;52.484;4.658;2022-07-29T01:04:53;4.78;;;1.50;;
61638;SDS011;47544;52.484;4.658;2022-07-29T01:05:04;4.20;;;1.42;;
61638;SDS011;47544;52.484;4.658;2022-07-29T01:05:16;4.25;;;1.42;;
61638;SDS011;47544;52.484;4.658;2022-07-29T01:05:28;4.90;;;1.60;;
61638;SDS011;47544;52.484;4.658;2022-07-29T01:05:39;4.78;;;1.67;;
61638;SDS011;47544;52.484;4.658;2022-07-29T01:05:52;4.78;;;1.70;;
61638;SDS011;47544;52.484;4.658;2022-07-29T01:06:03;4.10;;;1.70;;
61638;SDS011;47544;52.484;4.658;2022-07-29T01:06:14;4.15;;;1.60;;
61638;SDS011;47544;52.484;4.658;2022-07-29T01:06:28;3.70;;;1.60;;
61638;SDS011;47544;52.484;4.658;2022-07-29T01:06:39;4.68;;;1.65;;
61638;SDS011;47544;52.484;4.658;2022-07-29T01:06:50;4.95;;;1.70;;
61638;SDS011;47544;52.484;4.658;2022-07-29T01:07:02;4.50;;;1.65;;
61638;SDS011;47544;52.484;4.658;2022-07-29T01:07:13;3.15;;;1.50;;
61638;SDS011;47544;52.484;4.658;2022-07-29T01:07:25;4.50;;;1.60;;
61638;SDS011;47544;52.484;4.658;2022-07-29T01:07:37;5.40;;;1.70;;
61638;SDS011;47544;52.484;4.658;2022-07-29T01:07:48;5.38;;;1.70;;
61638;SDS011;47544;52.484;4.658;2022-07-29T01:07:59;4.97;;;1.70;;
61638;SDS011;47544;52.484;4.658;2022-07-29T01:08:13;4.15;;;1.60;;
61638;SDS011;47544;52.484;4.658;2022-07-29T01:08:25;3.60;;;1.45;;
61638;SDS011;47544;52.484;4.658;2022-07-29T01:08:36;3.25;;;1.40;;
61638;SDS011;47544;52.484;4.658;2022-07-29T01:08:47;3.78;;;1.42;;
61638;SDS011;47544;52.484;4.658;2022-07-29T01:08:59;4.13;;;1.50;;
61638;SDS011;47544;52.484;4.658;2022-07-29T01:09:10;4.13;;;1.63;;
61638;SDS011;47544;52.484;4.658;2022-07-29T01:09:23;3.38;;;1.60;;
61638;SDS011;47544;52.484;4.658;2022-07-29T01:09:36;3.03;;;1.60;;
61638;SDS011;47544;52.484;4.658;2022-07-29T01:09:47;4.03;;;1.60;;
61638;SDS011;47544;52.484;4.658;2022-07-29T01:09:58;3.92;;;1.60;;
61638;SDS011;47544;52.484;4.658;2022-07-29T01:10:09;3.67;;;1.50;;
61638;SDS011;47544;52.484;4.658;2022-07-29T01:10:23;3.75;;;1.50;;